createdAt,value
2023-03-25T12:02:24.100Z,12.80
2023-03-25T12:04:12.140Z,14.80
2023-03-25T12:06:07.354Z,27.60
2023-03-25T12:07:47.717Z,31.20
2023-03-25T12:09:19.895Z,34.60
2023-03-25T12:10:58.764Z,41.80
2023-03-25T12:12:43.701Z,52.80
2023-03-25T12:14:51.775Z,47.40
2023-03-25T12:16:57.397Z,55.00
2023-03-25T12:18:48.427Z,58.60
2023-03-25T12:20:27.902Z,63.80
2023-03-25T12:22:40.381Z,62.80
2023-03-25T12:24:30.615Z,60.00
2023-03-25T12:26:41.889Z,60.00
2023-03-25T12:28:33.443Z,63.40
2023-03-25T12:30:27.071Z,64.40
2023-03-25T12:32:23.041Z,63.80
2023-03-25T12:34:18.484Z,59.60
2023-03-25T12:36:18.840Z,64.00
2023-03-25T12:38:05.778Z,63.40
2023-03-25T12:39:58.488Z,62.60
2023-03-25T12:41:42.154Z,67.50
2023-03-25T12:43:22.631Z,75.00
2023-03-25T12:45:17.679Z,75.00
2023-03-25T12:46:55.336Z,74.75
2023-03-25T12:48:34.698Z,76.00
2023-03-25T12:50:35.814Z,74.00
2023-03-25T12:52:32.535Z,79.00
2023-03-25T12:54:07.730Z,77.50
2023-03-25T12:55:52.614Z,82.25
2023-03-25T12:57:30.768Z,81.25
2023-03-25T12:59:06.861Z,77.75
2023-03-25T13:00:54.384Z,79.75
2023-03-25T13:02:34.182Z,81.75
2023-03-25T13:04:24.679Z,93.50
2023-03-25T13:05:56.631Z,78.25
2023-03-25T13:08:22.489Z,81.25
2023-03-25T13:10:25.275Z,81.25
2023-03-25T13:12:03.744Z,78.75
2023-03-25T13:13:36.778Z,76.75
2023-03-25T13:15:32.294Z,112.20
2023-03-25T13:17:07.552Z,109.00
2023-03-25T13:18:46.541Z,94.25
2023-03-25T13:20:18.687Z,91.00
2023-03-25T13:21:58.361Z,91.50
2023-03-25T13:23:30.869Z,90.50
2023-03-25T13:25:05.111Z,96.25
2023-03-25T13:26:38.593Z,96.50
2023-03-25T13:28:18.292Z,93.00
2023-03-25T13:29:51.970Z,82.00
2023-03-25T13:31:28.670Z,92.00
2023-03-25T13:33:18.889Z,81.50
2023-03-25T13:34:57.084Z,78.00
2023-03-25T13:36:35.901Z,76.50
2023-03-25T13:38:20.178Z,99.50
2023-03-25T13:40:41.501Z,78.50
2023-03-25T13:42:26.836Z,76.75
2023-03-25T13:44:07.409Z,78.50
2023-03-25T13:45:55.215Z,71.00
2023-03-25T13:47:32.297Z,77.50
2023-03-25T13:49:29.232Z,78.25
2023-03-25T13:51:03.474Z,78.00
2023-03-25T13:52:39.676Z,77.25
2023-03-25T13:54:25.172Z,78.00
2023-03-25T13:56:36.285Z,82.25
2023-03-25T13:58:22.187Z,90.25
2023-03-25T14:00:10.290Z,85.75
2023-03-25T14:01:54.504Z,91.00
2023-03-25T14:03:53.579Z,94.50
2023-03-25T14:05:36.112Z,94.25
2023-03-25T14:07:34.700Z,93.50
2023-03-25T14:09:56.530Z,98.00
2023-03-25T14:11:30.266Z,88.00
2023-03-25T14:13:04.558Z,102.60
2023-03-25T14:14:39.803Z,109.20
2023-03-25T14:16:20.198Z,90.50
2023-03-25T14:17:53.051Z,100.20
2023-03-25T14:19:37.569Z,101.80
2023-03-25T14:21:29.570Z,104.00
2023-03-25T14:23:09.318Z,103.25
2023-03-25T14:24:41.877Z,102.50
2023-03-25T14:26:20.856Z,98.50
2023-03-25T14:27:52.914Z,92.50
2023-03-25T14:29:32.723Z,106.60
2023-03-25T14:31:24.599Z,97.25
2023-03-25T14:33:23.177Z,96.25
2023-03-25T14:35:00.775Z,88.75
2023-03-25T14:36:42.687Z,96.75
2023-03-25T14:38:18.413Z,88.50
2023-03-25T14:39:50.421Z,84.50
2023-03-25T14:42:16.411Z,100.00
2023-03-25T14:44:19.776Z,92.75
2023-03-25T14:45:59.381Z,102.25
2023-03-25T14:47:32.999Z,76.25
2023-03-25T14:49:05.925Z,81.00
2023-03-25T14:50:37.926Z,93.50
2023-03-25T14:52:10.444Z,93.50
2023-03-25T14:53:51.418Z,100.50
2023-03-25T14:55:41.052Z,97.25
2023-03-25T14:57:19.826Z,100.00
2023-03-25T14:58:53.700Z,101.00
2023-03-25T15:01:14.926Z,101.50
2023-03-25T15:03:37.709Z,97.75
2023-03-25T15:05:21.579Z,104.40
2023-03-25T15:06:53.738Z,98.00
2023-03-25T15:08:34.846Z,100.25
2023-03-25T15:10:07.416Z,94.50
2023-03-25T15:11:50.964Z,103.00
2023-03-25T15:13:30.550Z,94.60
2023-03-25T15:15:28.801Z,96.20
2023-03-25T15:17:03.863Z,108.60
2023-03-25T15:18:35.801Z,123.00
2023-03-25T15:20:09.754Z,94.20
2023-03-25T15:21:57.216Z,100.80
2023-03-25T15:23:42.815Z,99.50
2023-03-25T15:25:18.687Z,112.20
2023-03-25T15:26:51.949Z,123.80
2023-03-25T15:28:48.187Z,118.20
2023-03-25T15:30:49.015Z,109.75
2023-03-25T15:32:29.969Z,103.20
2023-03-25T15:34:31.294Z,122.60
2023-03-25T15:36:34.020Z,129.75
2023-03-25T15:38:47.356Z,118.00
2023-03-25T15:40:32.820Z,113.20
2023-03-25T15:42:10.461Z,137.75
2023-03-25T15:44:20.790Z,134.00
2023-03-25T15:46:21.702Z,139.25
2023-03-25T15:48:23.245Z,141.75
2023-03-25T15:50:17.141Z,130.50
2023-03-25T15:51:54.716Z,148.25
2023-03-25T15:53:42.941Z,133.50
2023-03-25T15:55:58.811Z,127.75
2023-03-25T15:57:59.703Z,123.75
2023-03-25T15:59:43.423Z,134.75
2023-03-25T16:01:54.106Z,134.25
2023-03-25T16:03:27.489Z,142.25
2023-03-25T16:05:03.201Z,138.00
2023-03-25T16:06:38.482Z,145.50
2023-03-25T16:08:18.116Z,152.00
2023-03-25T16:09:50.553Z,171.00
2023-03-25T16:11:22.343Z,131.25
2023-03-25T16:12:54.270Z,145.00
2023-03-25T16:14:32.060Z,143.25
2023-03-25T16:16:04.995Z,138.25
2023-03-25T16:17:41.491Z,140.00
2023-03-25T16:19:19.078Z,126.25
2023-03-25T16:20:55.795Z,139.50
2023-03-25T16:22:32.996Z,136.75
2023-03-25T16:24:07.892Z,107.00
2023-03-25T16:25:42.560Z,134.50
2023-03-25T16:27:29.899Z,134.50
2023-03-25T16:29:29.749Z,132.00
2023-03-25T16:31:03.138Z,135.50
2023-03-25T16:32:35.348Z,131.25
2023-03-25T16:34:17.983Z,122.25
2023-03-25T16:36:06.057Z,130.25
2023-03-25T16:37:38.743Z,139.75
2023-03-25T16:41:38.618Z,137.25
2023-03-25T16:43:21.813Z,128.75
2023-03-25T16:44:54.372Z,134.25
2023-03-25T16:46:28.343Z,119.25
2023-03-25T16:48:04.922Z,131.00
2023-03-25T16:49:39.353Z,119.00
2023-03-25T16:51:18.772Z,121.00
2023-03-25T16:52:50.801Z,117.75
2023-03-25T16:54:36.745Z,114.00
2023-03-25T16:56:15.608Z,111.00
2023-03-25T16:57:47.478Z,118.80
2023-03-25T16:59:28.571Z,114.60
2023-03-25T17:01:00.786Z,111.40
2023-03-25T17:02:42.231Z,105.75
2023-03-25T17:04:26.272Z,111.80
2023-03-25T17:06:03.022Z,96.00
2023-03-25T17:07:35.324Z,97.75
2023-03-25T17:09:10.230Z,89.25
2023-03-25T17:10:48.461Z,100.25
2023-03-25T17:12:21.530Z,91.00
2023-03-25T17:14:07.905Z,91.75
2023-03-25T17:15:40.071Z,77.50
2023-03-25T17:17:31.183Z,91.25
2023-03-25T17:19:03.105Z,90.50
2023-03-25T17:20:37.589Z,91.25
2023-03-25T17:22:24.242Z,89.50
2023-03-25T17:23:58.236Z,89.00
2023-03-25T17:25:38.795Z,93.25
2023-03-25T17:27:36.678Z,80.25
2023-03-25T17:31:30.089Z,88.50
2023-03-25T17:33:27.891Z,82.75
2023-03-25T17:35:05.352Z,88.75
2023-03-25T17:36:41.901Z,97.60
2023-03-25T17:38:52.281Z,98.75
2023-03-25T17:40:25.634Z,115.00
2023-03-25T17:42:04.575Z,194.75
2023-03-25T17:43:51.452Z,194.50
2023-03-25T17:45:24.168Z,144.75
2023-03-25T17:46:56.177Z,150.75
2023-03-25T17:48:28.574Z,138.75
2023-03-25T17:50:10.862Z,129.25
2023-03-25T17:51:48.917Z,123.00
2023-03-25T17:53:21.388Z,132.25
2023-03-25T17:54:53.260Z,114.50
2023-03-25T17:56:26.767Z,118.00
2023-03-25T17:58:07.032Z,121.50
2023-03-25T17:59:40.687Z,104.50
2023-03-25T18:01:17.247Z,109.40
2023-03-25T18:03:26.445Z,110.60
2023-03-25T18:05:02.130Z,116.25
2023-03-25T18:06:34.091Z,115.80
2023-03-25T18:08:09.487Z,116.50
2023-03-25T18:09:41.933Z,123.00
2023-03-25T18:11:15.804Z,133.00
2023-03-25T18:12:50.520Z,122.50
2023-03-25T18:14:26.848Z,107.25
2023-03-25T18:15:58.982Z,136.50
2023-03-25T18:17:34.114Z,121.50
2023-03-25T18:19:20.740Z,119.50
2023-03-25T18:21:04.040Z,113.00
2023-03-25T18:22:37.508Z,135.25
2023-03-25T18:24:09.390Z,135.75
2023-03-25T18:25:43.038Z,128.50
2023-03-25T18:27:16.371Z,143.75
2023-03-25T18:28:51.825Z,131.00
2023-03-25T18:31:02.377Z,142.25
2023-03-25T18:32:36.274Z,140.75
2023-03-25T18:34:09.791Z,140.75
2023-03-25T18:35:43.648Z,136.75
2023-03-25T18:37:15.999Z,143.25
2023-03-25T18:38:48.194Z,149.25
2023-03-25T18:40:24.234Z,151.50
2023-03-25T18:41:56.237Z,164.50
2023-03-25T18:43:28.468Z,154.75
2023-03-25T18:45:00.641Z,163.75
2023-03-25T18:46:32.748Z,212.33
2023-03-25T18:48:04.868Z,365.00
2023-03-25T18:49:36.757Z,242.33
2023-03-25T18:51:15.085Z,205.33
2023-03-25T18:52:47.036Z,185.00
2023-03-25T18:54:21.898Z,213.67
2023-03-25T18:56:22.360Z,213.67
2023-03-25T18:57:55.036Z,200.00
2023-03-25T18:59:27.098Z,216.33
2023-03-25T19:00:59.373Z,197.33
2023-03-25T19:02:31.457Z,200.75
2023-03-25T19:04:03.620Z,199.33
2023-03-25T19:05:35.544Z,203.00
2023-03-25T19:07:07.379Z,260.00
2023-03-25T19:08:40.484Z,521.80
2023-03-25T19:10:26.435Z,372.25
2023-03-25T19:11:58.459Z,302.00
2023-03-25T19:13:30.382Z,288.50
2023-03-25T19:15:02.348Z,287.75
2023-03-25T19:16:34.397Z,282.50
2023-03-25T19:18:06.491Z,245.00
2023-03-25T19:19:38.405Z,243.75
2023-03-25T19:21:14.101Z,256.00
2023-03-25T19:22:46.091Z,245.67
2023-03-25T19:24:18.156Z,247.00
2023-03-25T19:25:50.943Z,246.33
2023-03-25T19:27:22.749Z,242.67
2023-03-25T19:28:54.667Z,222.00
2023-03-25T19:30:31.894Z,215.33
2023-03-25T19:32:14.715Z,234.00
2023-03-25T19:33:52.910Z,225.33
2023-03-25T19:35:54.573Z,242.00
2023-03-25T19:37:35.558Z,258.67
2023-03-25T19:39:10.934Z,212.33
2023-03-25T19:40:43.350Z,383.00
2023-03-25T19:42:16.166Z,415.80
2023-03-25T19:43:48.068Z,349.00
2023-03-25T19:45:21.066Z,313.25
2023-03-25T19:46:52.975Z,274.25
2023-03-25T19:48:30.382Z,245.33
2023-03-25T19:50:02.239Z,370.00
2023-03-25T19:51:34.257Z,312.75
2023-03-25T19:53:06.309Z,302.00
2023-03-25T19:54:38.358Z,305.00
2023-03-25T19:56:14.686Z,314.00
2023-03-25T19:57:47.572Z,285.75
2023-03-25T19:59:19.527Z,246.50
2023-03-25T20:00:51.891Z,251.67
2023-03-25T20:02:24.263Z,204.33
2023-03-25T20:03:56.487Z,225.00
2023-03-25T20:05:34.679Z,229.00
2023-03-25T20:07:07.597Z,226.33
2023-03-25T20:08:43.998Z,226.00
2023-03-25T20:10:23.001Z,231.33
2023-03-25T20:11:54.857Z,211.33
2023-03-25T20:13:52.187Z,213.67
2023-03-25T20:15:25.315Z,234.00
2023-03-25T20:16:57.268Z,214.67
2023-03-25T20:18:29.229Z,227.33
2023-03-25T20:20:01.275Z,231.67
2023-03-25T20:21:34.876Z,221.67
2023-03-25T20:23:06.969Z,228.67
2023-03-25T20:24:38.985Z,260.75
2023-03-25T20:26:11.240Z,257.00
2023-03-25T20:27:52.725Z,228.00
2023-03-25T20:29:30.863Z,203.00
2023-03-25T20:31:18.706Z,188.33
2023-03-25T20:32:51.034Z,206.33
2023-03-25T20:34:23.069Z,215.00
2023-03-25T20:35:55.437Z,212.00
2023-03-25T20:37:27.802Z,209.00
2023-03-25T20:39:03.717Z,200.00
2023-03-25T20:40:44.500Z,195.67
2023-03-25T20:42:17.252Z,209.00
2023-03-25T20:43:49.577Z,198.00
2023-03-25T20:45:21.756Z,182.25
2023-03-25T20:46:53.866Z,196.67
2023-03-25T20:48:25.884Z,184.00
2023-03-25T20:49:59.746Z,195.75
2023-03-25T20:51:31.898Z,186.50
2023-03-25T20:53:04.520Z,200.25
2023-03-25T20:54:43.404Z,179.75
2023-03-25T20:56:20.734Z,171.25
2023-03-25T20:57:55.154Z,173.50
2023-03-25T20:59:27.394Z,171.75
2023-03-25T21:01:25.033Z,162.00
2023-03-25T21:02:57.791Z,160.50
2023-03-25T21:04:29.712Z,165.00
2023-03-25T21:06:07.416Z,163.00
2023-03-25T21:07:47.078Z,143.75
2023-03-25T21:09:19.241Z,156.75
2023-03-25T21:10:51.129Z,142.00
2023-03-25T21:12:29.697Z,165.50
2023-03-25T21:14:05.214Z,165.00
2023-03-25T21:15:40.304Z,133.75
2023-03-25T21:17:12.455Z,133.75
2023-03-25T21:18:55.861Z,126.50
2023-03-25T21:20:29.021Z,137.50
2023-03-25T21:22:00.892Z,121.25
2023-03-25T21:23:35.869Z,144.25
2023-03-25T21:25:07.819Z,136.00
2023-03-25T21:26:39.602Z,139.00
2023-03-25T21:28:11.461Z,111.50
2023-03-25T21:29:47.316Z,136.50
2023-03-25T21:31:23.031Z,129.00
2023-03-25T21:33:19.466Z,118.00
2023-03-25T21:34:56.402Z,261.33
2023-03-25T21:36:29.226Z,130.25
2023-03-25T21:38:01.217Z,138.25
2023-03-25T21:39:33.584Z,153.25
2023-03-25T21:41:06.867Z,153.50
2023-03-25T21:42:46.447Z,152.50
2023-03-25T21:44:18.701Z,153.50
2023-03-25T21:45:56.604Z,131.25
2023-03-25T21:47:34.490Z,156.50
2023-03-25T21:49:06.566Z,147.50
2023-03-25T21:50:38.513Z,158.25
2023-03-25T21:52:16.614Z,140.25
2023-03-25T21:53:55.580Z,144.00
2023-03-25T21:55:30.091Z,146.75
2023-03-25T21:57:04.717Z,141.50
2023-03-25T21:58:36.663Z,135.25
2023-03-25T22:00:09.142Z,148.75
2023-03-25T22:01:52.876Z,161.25
2023-03-25T22:03:30.840Z,138.25
2023-03-25T22:05:03.264Z,129.00
2023-03-25T22:07:01.103Z,145.00
2023-03-25T22:08:33.042Z,141.50
2023-03-25T22:10:06.142Z,149.50
2023-03-25T22:11:38.297Z,136.75
2023-03-25T22:13:10.174Z,147.00
2023-03-25T22:14:43.882Z,137.00
2023-03-25T22:16:17.511Z,140.25
2023-03-25T22:17:49.631Z,147.25
2023-03-25T22:19:24.046Z,142.00
2023-03-25T22:21:06.283Z,139.75
2023-03-25T22:22:44.073Z,137.50
2023-03-25T22:24:16.984Z,142.25
2023-03-25T22:25:48.909Z,131.25
2023-03-25T22:27:20.938Z,124.25
2023-03-25T22:29:18.190Z,127.25
2023-03-25T22:30:50.215Z,118.00
2023-03-25T22:32:24.375Z,116.00
2023-03-25T22:33:58.647Z,120.25
2023-03-25T22:35:30.688Z,117.25
2023-03-25T22:37:02.935Z,111.20
2023-03-25T22:38:34.813Z,119.00
2023-03-25T22:40:10.244Z,108.60
2023-03-25T22:42:06.820Z,106.00
2023-03-25T22:43:41.052Z,111.50
2023-03-25T22:45:38.211Z,100.25
2023-03-25T22:47:10.529Z,94.50
2023-03-25T22:48:42.751Z,94.25
2023-03-25T22:50:16.531Z,86.00
2023-03-25T22:51:48.558Z,86.75
2023-03-25T22:53:20.611Z,90.50
2023-03-25T22:54:55.052Z,80.00
2023-03-25T22:56:36.509Z,84.50
2023-03-25T22:58:08.585Z,81.25
2023-03-25T22:59:40.537Z,72.25
2023-03-25T23:01:21.778Z,81.25
2023-03-25T23:02:56.992Z,76.00
2023-03-25T23:04:29.026Z,76.33
2023-03-25T23:06:02.681Z,70.25
2023-03-25T23:07:36.860Z,72.75
2023-03-25T23:09:10.681Z,74.75
2023-03-25T23:10:46.980Z,70.75
2023-03-25T23:12:24.637Z,71.00
2023-03-25T23:14:02.569Z,69.00
2023-03-25T23:15:34.591Z,69.50
2023-03-25T23:17:06.763Z,68.75
2023-03-25T23:18:39.754Z,64.25
2023-03-25T23:20:11.713Z,63.00
2023-03-25T23:21:46.355Z,60.75
2023-03-25T23:23:22.336Z,64.50
2023-03-25T23:24:54.390Z,53.80
2023-03-25T23:26:35.026Z,57.40
2023-03-25T23:28:06.870Z,58.40
2023-03-25T23:29:41.856Z,54.00
2023-03-25T23:31:46.698Z,53.80
2023-03-25T23:33:20.516Z,55.00
